sensor_id;sensor_type;location;lat;lon;timestamp;temperature;humidity
1021;DHT22;499;42.648;23.270;2024-02-23T00:00:58;4.80;38.50
1021;DHT22;499;42.648;23.270;2024-02-23T00:03:50;4.90;38.50
1021;DHT22;499;42.648;23.270;2024-02-23T00:07:01;4.90;37.30
1021;DHT22;499;42.648;23.270;2024-02-23T00:10:03;4.90;37.30
1021;DHT22;499;42.648;23.270;2024-02-23T00:13:04;4.90;38.50
1021;DHT22;499;42.648;23.270;2024-02-23T00:16:21;4.90;38.40
1021;DHT22;499;42.648;23.270;2024-02-23T00:19:13;5.10;38.80
1021;DHT22;499;42.648;23.270;2024-02-23T00:21:54;4.90;39.40
1021;DHT22;499;42.648;23.270;2024-02-23T00:24:35;5.00;39.70
1021;DHT22;499;42.648;23.270;2024-02-23T00:27:21;5.10;39.30
1021;DHT22;499;42.648;23.270;2024-02-23T00:30:20;4.90;38.30
1021;DHT22;499;42.648;23.270;2024-02-23T00:33:18;4.90;39.70
1021;DHT22;499;42.648;23.270;2024-02-23T00:36:11;4.80;40.10
1021;DHT22;499;42.648;23.270;2024-02-23T00:39:15;4.80;40.30
1021;DHT22;499;42.648;23.270;2024-02-23T00:41:58;4.80;40.60
1021;DHT22;499;42.648;23.270;2024-02-23T00:44:50;4.60;41.70
1021;DHT22;499;42.648;23.270;2024-02-23T00:47:58;4.70;41.80
1021;DHT22;499;42.648;23.270;2024-02-23T00:54:54;4.80;40.80
1021;DHT22;499;42.648;23.270;2024-02-23T00:57:54;4.80;39.90
1021;DHT22;499;42.648;23.270;2024-02-23T01:00:41;3.50;39.10
1021;DHT22;499;42.648;23.270;2024-02-23T01:03:31;4.90;39.60
1021;DHT22;499;42.648;23.270;2024-02-23T01:06:44;4.80;39.60
1021;DHT22;499;42.648;23.270;2024-02-23T01:09:59;4.80;39.70
1021;DHT22;499;42.648;23.270;2024-02-23T01:12:58;4.80;41.10
1021;DHT22;499;42.648;23.270;2024-02-23T01:16:10;4.60;40.70
1021;DHT22;499;42.648;23.270;2024-02-23T01:19:54;4.60;40.50
1021;DHT22;499;42.648;23.270;2024-02-23T01:22:51;4.70;40.00
1021;DHT22;499;42.648;23.270;2024-02-23T01:29:35;4.60;40.60
1021;DHT22;499;42.648;23.270;2024-02-23T01:32:07;4.50;40.50
1021;DHT22;499;42.648;23.270;2024-02-23T01:35:06;4.60;39.70
1021;DHT22;499;42.648;23.270;2024-02-23T01:38:12;4.70;40.00
1021;DHT22;499;42.648;23.270;2024-02-23T01:41:25;4.70;39.70
1021;DHT22;499;42.648;23.270;2024-02-23T01:44:25;4.80;38.10
1021;DHT22;499;42.648;23.270;2024-02-23T01:47:38;4.80;39.00
1021;DHT22;499;42.648;23.270;2024-02-23T02:02:12;4.90;37.30
1021;DHT22;499;42.648;23.270;2024-02-23T02:05:12;5.50;33.10
1021;DHT22;499;42.648;23.270;2024-02-23T02:08:09;5.30;33.90
1021;DHT22;499;42.648;23.270;2024-02-23T02:11:15;5.20;33.70
1021;DHT22;499;42.648;23.270;2024-02-23T02:14:18;5.30;33.60
1021;DHT22;499;42.648;23.270;2024-02-23T02:17:30;5.20;33.90
1021;DHT22;499;42.648;23.270;2024-02-23T02:20:47;5.20;34.30
1021;DHT22;499;42.648;23.270;2024-02-23T02:24:04;5.10;34.60
1021;DHT22;499;42.648;23.270;2024-02-23T02:27:26;5.00;35.80
1021;DHT22;499;42.648;23.270;2024-02-23T02:30:37;4.90;37.30
1021;DHT22;499;42.648;23.270;2024-02-23T02:37:16;4.70;38.10
1021;DHT22;499;42.648;23.270;2024-02-23T02:40:21;4.70;38.20
1021;DHT22;499;42.648;23.270;2024-02-23T02:43:40;4.70;38.00
1021;DHT22;499;42.648;23.270;2024-02-23T02:47:03;4.70;38.80
1021;DHT22;499;42.648;23.270;2024-02-23T02:50:17;4.70;38.60
1021;DHT22;499;42.648;23.270;2024-02-23T02:53:16;4.80;37.20
1021;DHT22;499;42.648;23.270;2024-02-23T02:56:13;4.10;36.80
1021;DHT22;499;42.648;23.270;2024-02-23T02:59:07;4.80;37.20
1021;DHT22;499;42.648;23.270;2024-02-23T03:02:18;4.80;38.00
1021;DHT22;499;42.648;23.270;2024-02-23T03:15:45;4.90;39.20
1021;DHT22;499;42.648;23.270;2024-02-23T03:18:54;4.90;39.20
1021;DHT22;499;42.648;23.270;2024-02-23T03:21:54;4.90;39.60
1021;DHT22;499;42.648;23.270;2024-02-23T03:24:49;5.00;39.40
1021;DHT22;499;42.648;23.270;2024-02-23T03:28:05;4.90;40.00
1021;DHT22;499;42.648;23.270;2024-02-23T03:30:57;4.90;40.60
1021;DHT22;499;42.648;23.270;2024-02-23T03:33:35;4.80;41.60
1021;DHT22;499;42.648;23.270;2024-02-23T03:36:25;4.80;41.50
1021;DHT22;499;42.648;23.270;2024-02-23T03:39:08;4.70;42.50
1021;DHT22;499;42.648;23.270;2024-02-23T03:41:52;4.70;42.80
1021;DHT22;499;42.648;23.270;2024-02-23T03:44:41;4.70;43.00
1021;DHT22;499;42.648;23.270;2024-02-23T03:51:27;4.50;44.20
1021;DHT22;499;42.648;23.270;2024-02-23T03:54:20;4.50;46.10
1021;DHT22;499;42.648;23.270;2024-02-23T03:57:12;4.50;45.50
1021;DHT22;499;42.648;23.270;2024-02-23T04:00:12;4.50;46.20
1021;DHT22;499;42.648;23.270;2024-02-23T04:02:59;4.30;46.20
1021;DHT22;499;42.648;23.270;2024-02-23T04:05:44;4.40;47.90
1021;DHT22;499;42.648;23.270;2024-02-23T04:08:35;4.30;46.50
1021;DHT22;499;42.648;23.270;2024-02-23T04:11:23;4.20;47.10
1021;DHT22;499;42.648;23.270;2024-02-23T04:14:01;4.10;48.80
1021;DHT22;499;42.648;23.270;2024-02-23T04:16:52;4.30;50.30
1021;DHT22;499;42.648;23.270;2024-02-23T04:19:46;4.10;49.10
1021;DHT22;499;42.648;23.270;2024-02-23T04:22:25;4.30;48.90
1021;DHT22;499;42.648;23.270;2024-02-23T04:25:15;4.20;46.50
1021;DHT22;499;42.648;23.270;2024-02-23T04:28:07;4.20;48.50
1021;DHT22;499;42.648;23.270;2024-02-23T04:30:51;3.70;48.30
1021;DHT22;499;42.648;23.270;2024-02-23T04:33:40;4.10;48.10
1021;DHT22;499;42.648;23.270;2024-02-23T04:36:28;4.10;48.40
1021;DHT22;499;42.648;23.270;2024-02-23T04:39:07;4.00;48.60
1021;DHT22;499;42.648;23.270;2024-02-23T04:42:01;3.90;50.20
1021;DHT22;499;42.648;23.270;2024-02-23T04:44:56;3.80;50.10
1021;DHT22;499;42.648;23.270;2024-02-23T04:47:47;3.90;50.90
1021;DHT22;499;42.648;23.270;2024-02-23T04:50:37;3.90;50.30
1021;DHT22;499;42.648;23.270;2024-02-23T04:53:35;3.80;49.50
1021;DHT22;499;42.648;23.270;2024-02-23T04:56:34;3.70;49.00
1021;DHT22;499;42.648;23.270;2024-02-23T04:59:19;3.60;50.50
1021;DHT22;499;42.648;23.270;2024-02-23T05:01:59;3.70;51.00
1021;DHT22;499;42.648;23.270;2024-02-23T05:04:52;3.50;52.00
1021;DHT22;499;42.648;23.270;2024-02-23T05:07:46;3.60;53.50
1021;DHT22;499;42.648;23.270;2024-02-23T05:10:46;3.50;53.30
1021;DHT22;499;42.648;23.270;2024-02-23T05:13:53;3.50;52.20
1021;DHT22;499;42.648;23.270;2024-02-23T05:16:53;3.50;53.30
1021;DHT22;499;42.648;23.270;2024-02-23T05:19:42;3.40;52.80
1021;DHT22;499;42.648;23.270;2024-02-23T05:22:29;3.40;53.60
1021;DHT22;499;42.648;23.270;2024-02-23T05:25:22;3.40;54.20
1021;DHT22;499;42.648;23.270;2024-02-23T05:28:15;3.40;54.30
1021;DHT22;499;42.648;23.270;2024-02-23T05:31:07;3.30;54.20
1021;DHT22;499;42.648;23.270;2024-02-23T05:33:59;3.30;56.70
1021;DHT22;499;42.648;23.270;2024-02-23T05:36:52;3.30;55.90
1021;DHT22;499;42.648;23.270;2024-02-23T05:39:34;3.40;56.50
1021;DHT22;499;42.648;23.270;2024-02-23T05:42:26;3.40;56.60
1021;DHT22;499;42.648;23.270;2024-02-23T05:45:17;3.30;55.40
1021;DHT22;499;42.648;23.270;2024-02-23T05:48:00;3.30;58.00
1021;DHT22;499;42.648;23.270;2024-02-23T05:50:47;2.20;58.00
1021;DHT22;499;42.648;23.270;2024-02-23T05:53:38;3.50;59.40
1021;DHT22;499;42.648;23.270;2024-02-23T05:56:36;3.60;57.40
1021;DHT22;499;42.648;23.270;2024-02-23T05:59:25;3.80;56.30
1021;DHT22;499;42.648;23.270;2024-02-23T06:02:09;4.10;55.20
1021;DHT22;499;42.648;23.270;2024-02-23T06:04:53;3.70;51.10
1021;DHT22;499;42.648;23.270;2024-02-23T06:07:43;4.60;48.30
1021;DHT22;499;42.648;23.270;2024-02-23T06:10:34;4.80;45.10
1021;DHT22;499;42.648;23.270;2024-02-23T06:13:50;5.00;44.00
1021;DHT22;499;42.648;23.270;2024-02-23T06:16:58;4.90;41.90
1021;DHT22;499;42.648;23.270;2024-02-23T06:19:53;4.90;42.80
1021;DHT22;499;42.648;23.270;2024-02-23T06:22:46;5.10;41.00
1021;DHT22;499;42.648;23.270;2024-02-23T06:25:38;5.00;42.00
1021;DHT22;499;42.648;23.270;2024-02-23T06:28:18;5.00;42.30
1021;DHT22;499;42.648;23.270;2024-02-23T06:31:01;5.10;42.10
1021;DHT22;499;42.648;23.270;2024-02-23T06:33:59;5.20;42.40
1021;DHT22;499;42.648;23.270;2024-02-23T06:36:42;5.30;42.30
1021;DHT22;499;42.648;23.270;2024-02-23T06:39:43;5.50;41.00
1021;DHT22;499;42.648;23.270;2024-02-23T06:42:33;5.60;37.90
1021;DHT22;499;42.648;23.270;2024-02-23T06:45:13;5.70;36.90
1021;DHT22;499;42.648;23.270;2024-02-23T06:48:03;5.80;38.00
1021;DHT22;499;42.648;23.270;2024-02-23T06:50:45;6.00;38.20
1021;DHT22;499;42.648;23.270;2024-02-23T06:53:27;6.00;38.20
1021;DHT22;499;42.648;23.270;2024-02-23T06:56:25;6.20;36.50
1021;DHT22;499;42.648;23.270;2024-02-23T06:59:07;6.40;34.60
1021;DHT22;499;42.648;23.270;2024-02-23T07:01:54;6.50;33.80
1021;DHT22;499;42.648;23.270;2024-02-23T07:04:38;6.60;34.00
1021;DHT22;499;42.648;23.270;2024-02-23T07:07:14;6.60;34.00
1021;DHT22;499;42.648;23.270;2024-02-23T07:09:54;5.90;32.10
1021;DHT22;499;42.648;23.270;2024-02-23T07:12:42;6.70;32.60
1021;DHT22;499;42.648;23.270;2024-02-23T07:15:32;6.80;32.70
1021;DHT22;499;42.648;23.270;2024-02-23T07:18:55;6.90;32.50
1021;DHT22;499;42.648;23.270;2024-02-23T07:21:52;6.90;31.40
1021;DHT22;499;42.648;23.270;2024-02-23T07:24:48;7.00;30.80
1021;DHT22;499;42.648;23.270;2024-02-23T07:27:56;7.20;30.60
1021;DHT22;499;42.648;23.270;2024-02-23T07:30:58;7.30;29.90
1021;DHT22;499;42.648;23.270;2024-02-23T07:33:52;7.40;29.90
1021;DHT22;499;42.648;23.270;2024-02-23T07:37:08;7.50;30.00
1021;DHT22;499;42.648;23.270;2024-02-23T07:39:59;7.60;28.80
1021;DHT22;499;42.648;23.270;2024-02-23T07:43:11;7.60;29.00
1021;DHT22;499;42.648;23.270;2024-02-23T07:46:13;7.60;29.60
1021;DHT22;499;42.648;23.270;2024-02-23T07:49:19;7.70;28.70
1021;DHT22;499;42.648;23.270;2024-02-23T07:52:18;7.90;29.10
1021;DHT22;499;42.648;23.270;2024-02-23T07:55:09;8.00;28.40
1021;DHT22;499;42.648;23.270;2024-02-23T08:01:25;8.30;27.70
1021;DHT22;499;42.648;23.270;2024-02-23T08:04:13;8.40;27.00
1021;DHT22;499;42.648;23.270;2024-02-23T08:06:59;8.40;27.30
1021;DHT22;499;42.648;23.270;2024-02-23T08:09:31;8.40;27.30
1021;DHT22;499;42.648;23.270;2024-02-23T08:15:12;8.50;27.40
1021;DHT22;499;42.648;23.270;2024-02-23T08:17:55;8.70;27.00
1021;DHT22;499;42.648;23.270;2024-02-23T08:21:03;8.80;27.00
1021;DHT22;499;42.648;23.270;2024-02-23T08:24:07;7.10;26.00
1021;DHT22;499;42.648;23.270;2024-02-23T08:26:35;9.00;27.20
1021;DHT22;499;42.648;23.270;2024-02-23T08:29:04;9.20;27.30
1021;DHT22;499;42.648;23.270;2024-02-23T08:31:36;9.40;26.40
1021;DHT22;499;42.648;23.270;2024-02-23T08:34:54;9.60;26.50
1021;DHT22;499;42.648;23.270;2024-02-23T08:37:50;9.80;25.10
1021;DHT22;499;42.648;23.270;2024-02-23T08:40:37;10.10;24.50
1021;DHT22;499;42.648;23.270;2024-02-23T08:43:16;10.20;23.60
1021;DHT22;499;42.648;23.270;2024-02-23T08:46:04;10.10;23.40
1021;DHT22;499;42.648;23.270;2024-02-23T08:48:50;10.10;23.40
1021;DHT22;499;42.648;23.270;2024-02-23T08:51:39;10.30;23.50
1021;DHT22;499;42.648;23.270;2024-02-23T08:54:48;10.40;23.60
1021;DHT22;499;42.648;23.270;2024-02-23T08:57:37;10.60;22.60
1021;DHT22;499;42.648;23.270;2024-02-23T09:00:13;10.60;23.70
1021;DHT22;499;42.648;23.270;2024-02-23T09:07:10;10.90;21.70
1021;DHT22;499;42.648;23.270;2024-02-23T09:10:00;10.90;22.10
1021;DHT22;499;42.648;23.270;2024-02-23T09:13:01;11.30;21.60
1021;DHT22;499;42.648;23.270;2024-02-23T09:26:13;12.00;19.20
1021;DHT22;499;42.648;23.270;2024-02-23T09:32:58;12.30;18.10
1021;DHT22;499;42.648;23.270;2024-02-23T09:36:01;12.40;17.80
1021;DHT22;499;42.648;23.270;2024-02-23T10:04:14;13.10;16.70
1021;DHT22;499;42.648;23.270;2024-02-23T10:07:09;13.00;15.10
1021;DHT22;499;42.648;23.270;2024-02-23T10:10:08;13.00;15.50
1021;DHT22;499;42.648;23.270;2024-02-23T10:13:31;13.10;14.50
1021;DHT22;499;42.648;23.270;2024-02-23T10:20:11;13.50;13.90
1021;DHT22;499;42.648;23.270;2024-02-23T10:26:58;13.60;13.90
1021;DHT22;499;42.648;23.270;2024-02-23T10:29:54;13.50;13.80
1021;DHT22;499;42.648;23.270;2024-02-23T10:32:38;13.60;14.30
1021;DHT22;499;42.648;23.270;2024-02-23T10:35:37;13.70;13.90
1021;DHT22;499;42.648;23.270;2024-02-23T10:38:47;13.80;12.90
1021;DHT22;499;42.648;23.270;2024-02-23T10:41:51;13.80;14.00
1021;DHT22;499;42.648;23.270;2024-02-23T10:44:51;13.90;12.60
1021;DHT22;499;42.648;23.270;2024-02-23T10:47:58;13.70;13.40
1021;DHT22;499;42.648;23.270;2024-02-23T10:57:53;14.10;12.60
1021;DHT22;499;42.648;23.270;2024-02-23T11:01:08;14.20;12.80
1021;DHT22;499;42.648;23.270;2024-02-23T11:04:09;14.20;12.70
1021;DHT22;499;42.648;23.270;2024-02-23T11:07:18;14.30;12.60
1021;DHT22;499;42.648;23.270;2024-02-23T11:10:14;14.40;11.90
1021;DHT22;499;42.648;23.270;2024-02-23T11:13:17;14.20;12.40
1021;DHT22;499;42.648;23.270;2024-02-23T11:16:21;14.20;12.70
1021;DHT22;499;42.648;23.270;2024-02-23T11:20:02;13.80;13.40
1021;DHT22;499;42.648;23.270;2024-02-23T11:23:14;13.80;12.90
1021;DHT22;499;42.648;23.270;2024-02-23T11:26:17;14.00;12.60
1021;DHT22;499;42.648;23.270;2024-02-23T11:29:40;14.10;13.00
1021;DHT22;499;42.648;23.270;2024-02-23T11:32:41;14.00;12.30
1021;DHT22;499;42.648;23.270;2024-02-23T11:39:30;13.90;11.10
1021;DHT22;499;42.648;23.270;2024-02-23T11:42:40;14.00;12.40
1021;DHT22;499;42.648;23.270;2024-02-23T11:45:49;14.30;12.30
1021;DHT22;499;42.648;23.270;2024-02-23T11:48:51;14.30;12.30
1021;DHT22;499;42.648;23.270;2024-02-23T11:52:17;14.20;11.20
1021;DHT22;499;42.648;23.270;2024-02-23T11:55:17;14.20;12.00
1021;DHT22;499;42.648;23.270;2024-02-23T12:20:24;15.40;11.00
1021;DHT22;499;42.648;23.270;2024-02-23T12:33:18;14.50;11.00
1021;DHT22;499;42.648;23.270;2024-02-23T12:36:24;14.80;11.20
1021;DHT22;499;42.648;23.270;2024-02-23T12:39:22;15.10;10.30
1021;DHT22;499;42.648;23.270;2024-02-23T12:42:19;15.20;10.30
1021;DHT22;499;42.648;23.270;2024-02-23T12:45:22;15.40;9.30
1021;DHT22;499;42.648;23.270;2024-02-23T12:48:15;15.60;8.50
1021;DHT22;499;42.648;23.270;2024-02-23T12:51:20;15.50;7.60
1021;DHT22;499;42.648;23.270;2024-02-23T12:57:39;15.50;7.90
1021;DHT22;499;42.648;23.270;2024-02-23T13:04:13;15.40;6.90
1021;DHT22;499;42.648;23.270;2024-02-23T13:07:01;15.60;7.00
1021;DHT22;499;42.648;23.270;2024-02-23T13:09:56;15.60;7.00
1021;DHT22;499;42.648;23.270;2024-02-23T13:12:43;15.30;7.30
1021;DHT22;499;42.648;23.270;2024-02-23T13:15:34;15.20;8.30
1021;DHT22;499;42.648;23.270;2024-02-23T13:18:54;15.30;8.00
1021;DHT22;499;42.648;23.270;2024-02-23T13:35:33;15.50;7.70
1021;DHT22;499;42.648;23.270;2024-02-23T13:38:39;15.30;7.30
1021;DHT22;499;42.648;23.270;2024-02-23T13:45:19;15.60;7.00
1021;DHT22;499;42.648;23.270;2024-02-23T13:48:11;15.50;6.90
1021;DHT22;499;42.648;23.270;2024-02-23T13:51:12;15.60;7.00
1021;DHT22;499;42.648;23.270;2024-02-23T13:54:31;14.10;6.30
1021;DHT22;499;42.648;23.270;2024-02-23T13:57:13;15.30;7.60
1021;DHT22;499;42.648;23.270;2024-02-23T13:59:41;15.50;7.00
1021;DHT22;499;42.648;23.270;2024-02-23T14:02:23;15.60;7.20
1021;DHT22;499;42.648;23.270;2024-02-23T14:05:02;15.50;7.00
1021;DHT22;499;42.648;23.270;2024-02-23T14:07:33;15.50;7.00
1021;DHT22;499;42.648;23.270;2024-02-23T14:10:01;15.50;7.00
1021;DHT22;499;42.648;23.270;2024-02-23T14:12:28;15.40;7.00
1021;DHT22;499;42.648;23.270;2024-02-23T14:14:55;15.50;7.00
1021;DHT22;499;42.648;23.270;2024-02-23T14:17:30;15.30;7.00
1021;DHT22;499;42.648;23.270;2024-02-23T14:27:18;15.10;7.40
1021;DHT22;499;42.648;23.270;2024-02-23T14:30:36;15.20;8.10
1021;DHT22;499;42.648;23.270;2024-02-23T14:33:33;15.20;6.90
1021;DHT22;499;42.648;23.270;2024-02-23T14:36:37;15.20;6.80
1021;DHT22;499;42.648;23.270;2024-02-23T14:40:40;15.10;6.70
1021;DHT22;499;42.648;23.270;2024-02-23T14:43:54;14.90;6.60
1021;DHT22;499;42.648;23.270;2024-02-23T14:46:56;14.90;7.70
1021;DHT22;499;42.648;23.270;2024-02-23T14:50:00;14.70;7.00
1021;DHT22;499;42.648;23.270;2024-02-23T14:53:02;14.50;8.60
1021;DHT22;499;42.648;23.270;2024-02-23T14:56:28;14.30;8.80
1021;DHT22;499;42.648;23.270;2024-02-23T14:59:31;14.30;10.20
1021;DHT22;499;42.648;23.270;2024-02-23T15:02:40;14.20;9.50
1021;DHT22;499;42.648;23.270;2024-02-23T15:05:52;14.10;10.20
1021;DHT22;499;42.648;23.270;2024-02-23T15:09:09;14.10;9.70
1021;DHT22;499;42.648;23.270;2024-02-23T15:12:12;14.10;9.20
1021;DHT22;499;42.648;23.270;2024-02-23T15:15:11;14.00;10.10
1021;DHT22;499;42.648;23.270;2024-02-23T15:18:04;14.00;10.20
1021;DHT22;499;42.648;23.270;2024-02-23T15:20:50;13.90;10.10
1021;DHT22;499;42.648;23.270;2024-02-23T15:23:49;14.00;10.10
1021;DHT22;499;42.648;23.270;2024-02-23T15:26:33;13.90;10.70
1021;DHT22;499;42.648;23.270;2024-02-23T15:29:54;13.90;10.20
1021;DHT22;499;42.648;23.270;2024-02-23T15:33:02;13.80;10.60
1021;DHT22;499;42.648;23.270;2024-02-23T15:35:49;13.70;10.80
1021;DHT22;499;42.648;23.270;2024-02-23T15:38:40;13.70;11.20
1021;DHT22;499;42.648;23.270;2024-02-23T15:41:46;13.60;10.90
1021;DHT22;499;42.648;23.270;2024-02-23T15:44:36;13.70;10.60
1021;DHT22;499;42.648;23.270;2024-02-23T15:51:00;13.70;11.10
1021;DHT22;499;42.648;23.270;2024-02-23T15:54:03;13.70;11.10
1021;DHT22;499;42.648;23.270;2024-02-23T16:00:26;13.50;11.70
1021;DHT22;499;42.648;23.270;2024-02-23T16:03:10;13.50;11.90
1021;DHT22;499;42.648;23.270;2024-02-23T16:06:11;13.50;12.20
1021;DHT22;499;42.648;23.270;2024-02-23T16:09:07;13.30;12.60
1021;DHT22;499;42.648;23.270;2024-02-23T16:11:57;13.30;13.40
1021;DHT22;499;42.648;23.270;2024-02-23T16:14:42;13.20;13.40
1021;DHT22;499;42.648;23.270;2024-02-23T16:17:40;13.20;13.00
1021;DHT22;499;42.648;23.270;2024-02-23T16:20:19;13.10;13.50
1021;DHT22;499;42.648;23.270;2024-02-23T16:26:45;13.00;13.50
1021;DHT22;499;42.648;23.270;2024-02-23T16:30:03;12.90;14.30
1021;DHT22;499;42.648;23.270;2024-02-23T16:33:04;12.80;13.70
1021;DHT22;499;42.648;23.270;2024-02-23T16:35:58;12.80;13.40
1021;DHT22;499;42.648;23.270;2024-02-23T16:38:42;12.20;13.30
1021;DHT22;499;42.648;23.270;2024-02-23T16:41:40;12.90;13.90
1021;DHT22;499;42.648;23.270;2024-02-23T16:44:32;12.90;14.30
1021;DHT22;499;42.648;23.270;2024-02-23T16:47:24;12.80;13.70
1021;DHT22;499;42.648;23.270;2024-02-23T16:50:13;12.90;13.40
1021;DHT22;499;42.648;23.270;2024-02-23T16:56:18;12.80;14.00
1021;DHT22;499;42.648;23.270;2024-02-23T16:59:39;12.80;14.40
1021;DHT22;499;42.648;23.270;2024-02-23T17:02:33;12.60;14.90
1021;DHT22;499;42.648;23.270;2024-02-23T17:05:32;12.70;14.10
1021;DHT22;499;42.648;23.270;2024-02-23T17:08:40;12.70;14.30
1021;DHT22;499;42.648;23.270;2024-02-23T17:11:42;12.80;13.80
1021;DHT22;499;42.648;23.270;2024-02-23T17:14:48;12.70;14.60
1021;DHT22;499;42.648;23.270;2024-02-23T17:17:51;12.30;14.80
1021;DHT22;499;42.648;23.270;2024-02-23T17:20:56;12.60;15.70
1021;DHT22;499;42.648;23.270;2024-02-23T17:23:53;12.60;15.70
1021;DHT22;499;42.648;23.270;2024-02-23T17:26:39;12.60;16.20
1021;DHT22;499;42.648;23.270;2024-02-23T17:29:47;12.60;16.00
1021;DHT22;499;42.648;23.270;2024-02-23T17:32:35;13.40;16.80
1021;DHT22;499;42.648;23.270;2024-02-23T17:35:31;12.60;16.30
1021;DHT22;499;42.648;23.270;2024-02-23T17:38:40;12.50;16.40
1021;DHT22;499;42.648;23.270;2024-02-23T17:41:39;12.40;16.90
1021;DHT22;499;42.648;23.270;2024-02-23T17:44:35;12.40;17.10
1021;DHT22;499;42.648;23.270;2024-02-23T17:47:06;12.30;17.00
1021;DHT22;499;42.648;23.270;2024-02-23T17:49:43;12.30;17.00
1021;DHT22;499;42.648;23.270;2024-02-23T17:56:03;12.00;16.80
1021;DHT22;499;42.648;23.270;2024-02-23T17:58:34;12.40;17.10
1021;DHT22;499;42.648;23.270;2024-02-23T18:04:55;12.30;17.90
1021;DHT22;499;42.648;23.270;2024-02-23T18:08:27;12.20;17.60
1021;DHT22;499;42.648;23.270;2024-02-23T18:11:00;12.20;18.10
1021;DHT22;499;42.648;23.270;2024-02-23T18:13:44;12.30;17.00
1021;DHT22;499;42.648;23.270;2024-02-23T18:16:55;12.20;17.00
1021;DHT22;499;42.648;23.270;2024-02-23T18:23:39;12.40;17.10
1021;DHT22;499;42.648;23.270;2024-02-23T18:29:58;12.40;17.10
1021;DHT22;499;42.648;23.270;2024-02-23T18:36:38;12.30;17.30
1021;DHT22;499;42.648;23.270;2024-02-23T18:47:08;12.30;18.20
1021;DHT22;499;42.648;23.270;2024-02-23T18:50:18;12.30;18.60
1021;DHT22;499;42.648;23.270;2024-02-23T18:53:19;12.20;18.60
1021;DHT22;499;42.648;23.270;2024-02-23T18:56:06;11.90;18.60
1021;DHT22;499;42.648;23.270;2024-02-23T18:59:06;12.20;18.40
1021;DHT22;499;42.648;23.270;2024-02-23T19:01:52;12.10;18.90
1021;DHT22;499;42.648;23.270;2024-02-23T19:08:15;12.20;18.40
1021;DHT22;499;42.648;23.270;2024-02-23T19:11:18;12.20;18.30
1021;DHT22;499;42.648;23.270;2024-02-23T19:15:00;12.20;18.40
1021;DHT22;499;42.648;23.270;2024-02-23T19:21:49;12.30;18.20
1021;DHT22;499;42.648;23.270;2024-02-23T19:25:27;12.20;18.60
1021;DHT22;499;42.648;23.270;2024-02-23T19:28:30;12.20;18.60
1021;DHT22;499;42.648;23.270;2024-02-23T19:31:09;12.30;17.80
1021;DHT22;499;42.648;23.270;2024-02-23T19:34:26;12.30;17.40
1021;DHT22;499;42.648;23.270;2024-02-23T19:37:24;12.20;18.40
1021;DHT22;499;42.648;23.270;2024-02-23T19:40:33;12.30;18.20
1021;DHT22;499;42.648;23.270;2024-02-23T19:46:58;12.00;18.50
1021;DHT22;499;42.648;23.270;2024-02-23T19:49:38;12.20;18.80
1021;DHT22;499;42.648;23.270;2024-02-23T19:52:52;12.20;18.20
1021;DHT22;499;42.648;23.270;2024-02-23T20:00:00;12.20;18.80
1021;DHT22;499;42.648;23.270;2024-02-23T20:03:22;12.20;18.40
1021;DHT22;499;42.648;23.270;2024-02-23T20:06:30;12.20;18.30
1021;DHT22;499;42.648;23.270;2024-02-23T20:09:39;12.10;18.20
1021;DHT22;499;42.648;23.270;2024-02-23T20:12:49;12.10;18.60
1021;DHT22;499;42.648;23.270;2024-02-23T20:15:51;12.10;18.80
1021;DHT22;499;42.648;23.270;2024-02-23T20:18:54;11.70;18.80
1021;DHT22;499;42.648;23.270;2024-02-23T20:22:10;12.00;19.00
1021;DHT22;499;42.648;23.270;2024-02-23T20:28:41;12.20;18.80
1021;DHT22;499;42.648;23.270;2024-02-23T20:32:37;12.20;19.10
1021;DHT22;499;42.648;23.270;2024-02-23T20:35:48;12.20;19.30
1021;DHT22;499;42.648;23.270;2024-02-23T20:38:52;12.10;19.80
1021;DHT22;499;42.648;23.270;2024-02-23T20:42:06;12.20;19.10
1021;DHT22;499;42.648;23.270;2024-02-23T20:48:29;12.20;19.40
1021;DHT22;499;42.648;23.270;2024-02-23T20:51:29;11.70;18.70
1021;DHT22;499;42.648;23.270;2024-02-23T20:54:42;12.30;19.50
1021;DHT22;499;42.648;23.270;2024-02-23T20:57:32;12.30;19.20
1021;DHT22;499;42.648;23.270;2024-02-23T21:03:45;12.30;19.50
1021;DHT22;499;42.648;23.270;2024-02-23T21:06:31;12.30;20.20
1021;DHT22;499;42.648;23.270;2024-02-23T21:09:53;12.20;20.40
1021;DHT22;499;42.648;23.270;2024-02-23T21:13:11;12.20;20.90
1021;DHT22;499;42.648;23.270;2024-02-23T21:16:08;12.10;20.80
1021;DHT22;499;42.648;23.270;2024-02-23T21:22:42;12.10;20.80
1021;DHT22;499;42.648;23.270;2024-02-23T21:25:53;12.10;20.80
1021;DHT22;499;42.648;23.270;2024-02-23T21:28:58;12.10;20.80
1021;DHT22;499;42.648;23.270;2024-02-23T21:31:48;12.10;20.80
1021;DHT22;499;42.648;23.270;2024-02-23T21:34:52;12.10;20.80
1021;DHT22;499;42.648;23.270;2024-02-23T21:37:50;12.20;20.90
1021;DHT22;499;42.648;23.270;2024-02-23T21:40:40;12.00;21.10
1021;DHT22;499;42.648;23.270;2024-02-23T21:43:33;12.10;21.20
1021;DHT22;499;42.648;23.270;2024-02-23T21:46:21;12.00;21.70
1021;DHT22;499;42.648;23.270;2024-02-23T21:49:20;12.00;21.90
1021;DHT22;499;42.648;23.270;2024-02-23T21:52:09;12.10;21.70
1021;DHT22;499;42.648;23.270;2024-02-23T21:55:12;12.00;21.70
1021;DHT22;499;42.648;23.270;2024-02-23T21:58:10;12.00;22.10
1021;DHT22;499;42.648;23.270;2024-02-23T22:01:12;11.90;21.90
1021;DHT22;499;42.648;23.270;2024-02-23T22:04:19;12.00;21.30
1021;DHT22;499;42.648;23.270;2024-02-23T22:07:17;12.10;20.80
1021;DHT22;499;42.648;23.270;2024-02-23T22:10:16;12.00;20.70
1021;DHT22;499;42.648;23.270;2024-02-23T22:13:09;12.00;21.10
1021;DHT22;499;42.648;23.270;2024-02-23T22:16:07;12.10;21.40
1021;DHT22;499;42.648;23.270;2024-02-23T22:19:06;12.10;21.30
1021;DHT22;499;42.648;23.270;2024-02-23T22:22:13;12.10;21.50
1021;DHT22;499;42.648;23.270;2024-02-23T22:25:18;12.00;22.10
1021;DHT22;499;42.648;23.270;2024-02-23T22:28:12;11.90;22.90
1021;DHT22;499;42.648;23.270;2024-02-23T22:31:02;12.00;22.50
1021;DHT22;499;42.648;23.270;2024-02-23T22:34:17;12.00;22.30
1021;DHT22;499;42.648;23.270;2024-02-23T22:37:48;12.00;22.30
1021;DHT22;499;42.648;23.270;2024-02-23T22:48:21;12.30;22.50
1021;DHT22;499;42.648;23.270;2024-02-23T22:51:05;12.10;21.50
1021;DHT22;499;42.648;23.270;2024-02-23T22:54:03;12.20;21.20
1021;DHT22;499;42.648;23.270;2024-02-23T22:57:41;12.10;21.20
1021;DHT22;499;42.648;23.270;2024-02-23T23:11:09;12.10;21.20
1021;DHT22;499;42.648;23.270;2024-02-23T23:20:49;11.90;22.70
1021;DHT22;499;42.648;23.270;2024-02-23T23:37:28;11.90;21.90
1021;DHT22;499;42.648;23.270;2024-02-23T23:40:40;12.00;21.70
1021;DHT22;499;42.648;23.270;2024-02-23T23:44:10;12.00;21.60
1021;DHT22;499;42.648;23.270;2024-02-23T23:50:41;12.00;21.20
